Time,TemperatureF,DewpointF,PressureIn,WindDirection,WindDirectionDegrees,WindSpeedMPH,WindSpeedGustMPH,Humidity,HourlyPrecipIn,Conditions,Clouds,dailyrainin,SoftwareType,DateUTC
2013-02-15 00:08:00,21.2,16.6,29.91,WNW,292,0.0,-999.0,82,-99.99,,,0.00,Acu-Link.com,2013-02-15 05:08:00,
2013-02-15 00:23:00,20.7,16.4,29.91,SSW,202,0.0,-999.0,83,-99.99,,,0.00,Acu-Link.com,2013-02-15 05:23:00,
2013-02-15 00:39:00,20.3,16.3,29.91,ESE,112,0.0,-999.0,84,-99.99,,,0.00,Acu-Link.com,2013-02-15 05:39:00,
2013-02-15 00:54:00,19.6,15.3,29.90,NE,45,0.0,-999.0,83,-99.99,,,0.00,Acu-Link.com,2013-02-15 05:54:00,
2013-02-15 01:09:00,19.0,15.0,29.90,East,90,0.0,-999.0,84,-99.99,,,0.00,Acu-Link.com,2013-02-15 06:09:00,
2013-02-15 01:24:00,18.5,14.5,29.90,SW,225,0.0,-999.0,84,-99.99,,,0.00,Acu-Link.com,2013-02-15 06:24:00,
2013-02-15 01:40:00,18.0,14.0,29.90,North,0,0.0,-999.0,84,-99.99,,,0.00,Acu-Link.com,2013-02-15 06:40:00,
2013-02-15 01:55:00,17.4,13.4,29.90,SSE,157,0.0,-999.0,84,-99.99,,,0.00,Acu-Link.com,2013-02-15 06:55:00,
2013-02-15 02:10:00,17.4,13.7,29.90,NNW,337,0.0,-999.0,85,-99.99,,,0.00,Acu-Link.com,2013-02-15 07:10:00,
2013-02-15 02:26:00,17.6,14.1,29.90,NE,45,0.0,-999.0,86,-99.99,,,0.00,Acu-Link.com,2013-02-15 07:26:00,
2013-02-15 02:41:00,18.0,14.5,29.90,West,270,0.0,-999.0,86,-99.99,,,0.00,Acu-Link.com,2013-02-15 07:41:00,
2013-02-15 02:56:00,18.7,15.2,29.90,East,90,0.0,-999.0,86,-99.99,,,0.00,Acu-Link.com,2013-02-15 07:56:00,
2013-02-15 03:11:00,19.2,15.7,29.89,NW,315,0.0,-999.0,86,-99.99,,,0.00,Acu-Link.com,2013-02-15 08:11:00,
2013-02-15 03:27:00,19.6,16.1,29.89,NNE,22,0.0,-999.0,86,-99.99,,,0.00,Acu-Link.com,2013-02-15 08:27:00,
2013-02-15 03:42:00,19.9,16.7,29.89,SE,135,0.0,-999.0,87,-99.99,,,0.00,Acu-Link.com,2013-02-15 08:42:00,
2013-02-15 03:57:00,20.3,17.1,29.89,ESE,112,0.0,-999.0,87,-99.99,,,0.00,Acu-Link.com,2013-02-15 08:57:00,
2013-02-15 04:17:00,20.5,17.3,29.88,NNE,22,0.0,-999.0,87,-99.99,,,0.00,Acu-Link.com,2013-02-15 09:17:00,
2013-02-15 04:32:00,21.0,17.5,29.88,East,90,0.0,-999.0,86,-99.99,,,0.00,Acu-Link.com,2013-02-15 09:32:00,
2013-02-15 04:48:00,21.4,17.9,29.88,West,270,0.0,-999.0,86,-99.99,,,0.00,Acu-Link.com,2013-02-15 09:48:00,
2013-02-15 05:03:00,21.9,18.4,29.87,South,180,0.0,-999.0,86,-99.99,,,0.00,Acu-Link.com,2013-02-15 10:03:00,
2013-02-15 05:18:00,21.9,18.4,29.87,SW,225,0.0,-999.0,86,-99.99,,,0.00,Acu-Link.com,2013-02-15 10:18:00,
2013-02-15 05:33:00,22.8,19.0,29.88,SSE,157,0.0,-999.0,85,-99.99,,,0.00,Acu-Link.com,2013-02-15 10:33:00,
2013-02-15 05:48:00,22.1,18.0,29.88,WNW,292,0.0,-999.0,84,-99.99,,,0.00,Acu-Link.com,2013-02-15 10:48:00,
2013-02-15 06:04:00,21.4,17.6,29.88,WNW,292,0.0,-999.0,85,-99.99,,,0.00,Acu-Link.com,2013-02-15 11:04:00,
2013-02-15 06:19:00,20.8,17.0,29.87,West,270,0.0,-999.0,85,-99.99,,,0.00,Acu-Link.com,2013-02-15 11:19:00,
2013-02-15 06:34:00,20.3,16.5,29.88,West,270,0.0,-999.0,85,-99.99,,,0.00,Acu-Link.com,2013-02-15 11:34:00,
2013-02-15 06:49:00,19.8,16.3,29.88,ENE,67,0.0,-999.0,86,-99.99,,,0.00,Acu-Link.com,2013-02-15 11:49:00,
2013-02-15 07:05:00,19.6,16.1,29.87,NNE,22,0.0,-999.0,86,-99.99,,,0.00,Acu-Link.com,2013-02-15 12:05:00,
2013-02-15 07:20:00,19.9,16.4,29.87,NE,45,0.0,-999.0,86,-99.99,,,0.00,Acu-Link.com,2013-02-15 12:20:00,
2013-02-15 07:35:00,22.6,18.8,29.88,WSW,247,0.0,-999.0,85,-99.99,,,0.00,Acu-Link.com,2013-02-15 12:35:00,
2013-02-15 07:51:00,26.6,21.9,29.89,NNE,22,0.0,-999.0,82,-99.99,,,0.00,Acu-Link.com,2013-02-15 12:51:00,
2013-02-15 08:06:00,28.4,22.1,29.89,NNE,22,0.0,-999.0,77,-99.99,,,0.00,Acu-Link.com,2013-02-15 13:06:00,
2013-02-15 08:21:00,31.8,24.2,29.89,South,180,0.0,-999.0,73,-99.99,,,0.00,Acu-Link.com,2013-02-15 13:21:00,
2013-02-15 08:36:00,35.6,27.1,29.89,South,180,0.0,-999.0,71,-99.99,,,0.00,Acu-Link.com,2013-02-15 13:36:00,
2013-02-15 08:52:00,36.7,26.8,29.88,ESE,112,2.2,-999.0,67,-99.99,,,0.00,Acu-Link.com,2013-02-15 13:52:00,
2013-02-15 09:07:00,39.2,28.1,29.88,SSW,202,1.1,-999.0,64,-99.99,,,0.00,Acu-Link.com,2013-02-15 14:07:00,
2013-02-15 09:22:00,41.0,28.6,29.88,West,270,0.0,-999.0,61,-99.99,,,0.00,Acu-Link.com,2013-02-15 14:22:00,
2013-02-15 09:37:00,41.9,28.6,29.88,ENE,67,1.7,-999.0,59,-99.99,,,0.00,Acu-Link.com,2013-02-15 14:37:00,
2013-02-15 09:53:00,41.9,28.6,29.88,ENE,67,4.2,-999.0,59,-99.99,,,0.00,Acu-Link.com,2013-02-15 14:53:00,
2013-02-15 10:08:00,42.8,29.5,29.88,NE,45,3.2,-999.0,59,-99.99,,,0.00,Acu-Link.com,2013-02-15 15:08:00,
2013-02-15 10:23:00,44.4,31.0,29.88,WNW,292,5.8,-999.0,59,-99.99,,,0.00,Acu-Link.com,2013-02-15 15:23:00,
2013-02-15 10:38:00,43.9,29.7,29.87,SW,225,1.7,-999.0,57,-99.99,,,0.00,Acu-Link.com,2013-02-15 15:38:00,
2013-02-15 10:54:00,43.2,29.4,29.87,ESE,112,3.7,-999.0,58,-99.99,,,0.00,Acu-Link.com,2013-02-15 15:54:00,
2013-02-15 11:09:00,45.5,30.7,29.87,SE,135,2.7,-999.0,56,-99.99,,,0.01,Acu-Link.com,2013-02-15 16:09:00,
2013-02-15 11:24:00,46.6,30.9,29.86,ENE,67,2.7,-999.0,54,-99.99,,,0.01,Acu-Link.com,2013-02-15 16:24:00,
2013-02-15 11:40:00,45.9,29.7,29.85,SW,225,2.7,-999.0,53,-99.99,,,0.01,Acu-Link.com,2013-02-15 16:40:00,
2013-02-15 11:55:00,47.1,29.4,29.85,NNE,22,4.7,-999.0,50,-99.99,,,0.02,Acu-Link.com,2013-02-15 16:55:00,
2013-02-15 12:11:00,45.0,28.4,29.85,ENE,67,3.7,-999.0,52,-99.99,,,0.02,Acu-Link.com,2013-02-15 17:11:00,
2013-02-15 12:26:00,45.5,28.4,29.84,NNE,22,6.8,-999.0,51,-99.99,,,0.03,Acu-Link.com,2013-02-15 17:26:00,
2013-02-15 12:41:00,44.8,28.3,29.84,WSW,247,2.7,-999.0,52,-99.99,,,0.03,Acu-Link.com,2013-02-15 17:41:00,
2013-02-15 12:56:00,44.6,28.1,29.84,NNE,22,3.7,-999.0,52,-99.99,,,0.04,Acu-Link.com,2013-02-15 17:56:00,
2013-02-15 13:11:00,45.0,28.0,29.83,NE,45,3.7,-999.0,51,-99.99,,,0.04,Acu-Link.com,2013-02-15 18:11:00,
2013-02-15 13:27:00,45.3,26.8,29.83,ESE,112,3.2,-999.0,48,-99.99,,,0.04,Acu-Link.com,2013-02-15 18:27:00,
2013-02-15 13:42:00,44.8,25.8,29.83,North,0,6.3,-999.0,47,-99.99,,,0.04,Acu-Link.com,2013-02-15 18:42:00,
2013-02-15 13:57:00,45.3,26.3,29.83,ESE,112,3.7,-999.0,47,-99.99,,,0.04,Acu-Link.com,2013-02-15 18:57:00,
2013-02-15 14:13:00,44.2,26.3,29.83,NNE,22,7.3,-999.0,49,-99.99,,,0.04,Acu-Link.com,2013-02-15 19:13:00,
2013-02-15 14:28:00,44.2,25.8,29.83,South,180,9.9,-999.0,48,-99.99,,,0.05,Acu-Link.com,2013-02-15 19:28:00,
2013-02-15 14:43:00,44.2,26.3,29.84,NNE,22,4.7,-999.0,49,-99.99,,,0.05,Acu-Link.com,2013-02-15 19:43:00,
2013-02-15 14:59:00,44.6,26.6,29.84,NW,315,2.2,-999.0,49,-99.99,,,0.05,Acu-Link.com,2013-02-15 19:59:00,
2013-02-15 15:14:00,44.6,27.1,29.84,SE,135,3.2,-999.0,50,-99.99,,,0.05,Acu-Link.com,2013-02-15 20:14:00,
2013-02-15 15:29:00,43.7,26.3,29.84,South,180,4.7,-999.0,50,-99.99,,,0.05,Acu-Link.com,2013-02-15 20:29:00,
2013-02-15 16:00:00,42.8,25.9,29.84,WSW,247,3.2,-999.0,51,-99.99,,,0.05,Acu-Link.com,2013-02-15 21:00:00,
2013-02-15 16:15:00,42.3,25.9,29.85,NW,315,2.7,-999.0,52,-99.99,,,0.05,Acu-Link.com,2013-02-15 21:15:00,
2013-02-15 16:30:00,41.5,25.7,29.86,West,270,1.7,-999.0,53,-99.99,,,0.05,Acu-Link.com,2013-02-15 21:30:00,
2013-02-15 16:45:00,41.0,25.6,29.86,WNW,292,1.7,-999.0,54,-99.99,,,0.05,Acu-Link.com,2013-02-15 21:45:00,
2013-02-15 17:00:00,40.1,24.8,29.86,South,180,0.0,-999.0,54,-99.99,,,0.05,Acu-Link.com,2013-02-15 22:00:00,
2013-02-15 17:15:00,38.8,24.9,29.88,ENE,67,0.0,-999.0,57,-99.99,,,0.05,Acu-Link.com,2013-02-15 22:15:00,
2013-02-15 17:31:00,37.8,24.4,29.88,SSE,157,3.2,-999.0,58,-99.99,,,0.05,Acu-Link.com,2013-02-15 22:31:00,
2013-02-15 17:46:00,36.7,24.5,29.89,ESE,112,0.0,-999.0,61,-99.99,,,0.05,Acu-Link.com,2013-02-15 22:46:00,
2013-02-15 18:02:00,36.1,24.7,29.89,SE,135,0.0,-999.0,63,-99.99,,,0.05,Acu-Link.com,2013-02-15 23:02:00,
2013-02-15 18:17:00,35.6,25.7,29.89,South,180,1.7,-999.0,67,-99.99,,,0.05,Acu-Link.com,2013-02-15 23:17:00,
2013-02-15 18:33:00,34.9,25.4,29.89,ESE,112,1.7,-999.0,68,-99.99,,,0.05,Acu-Link.com,2013-02-15 23:33:00,
2013-02-15 18:48:00,34.9,24.3,29.90,NNE,22,1.7,-999.0,65,-99.99,,,0.05,Acu-Link.com,2013-02-15 23:48:00,
2013-02-15 19:03:00,34.2,24.0,29.90,South,180,0.0,-999.0,66,-99.99,,,0.05,Acu-Link.com,2013-02-16 00:03:00,
2013-02-15 19:18:00,33.3,24.2,29.89,NW,315,0.0,-999.0,69,-99.99,,,0.05,Acu-Link.com,2013-02-16 00:18:00,
2013-02-15 19:34:00,32.5,23.1,29.89,ESE,112,0.0,-999.0,68,-99.99,,,0.05,Acu-Link.com,2013-02-16 00:34:00,
2013-02-15 19:49:00,32.0,24.0,29.89,South,180,1.7,-999.0,72,-99.99,,,0.05,Acu-Link.com,2013-02-16 00:49:00,
2013-02-15 20:04:00,31.6,22.3,29.88,SSE,157,2.2,-999.0,68,-99.99,,,0.05,Acu-Link.com,2013-02-16 01:04:00,
2013-02-15 20:19:00,33.1,22.6,29.88,South,180,2.7,-999.0,65,-99.99,,,0.05,Acu-Link.com,2013-02-16 01:19:00,
2013-02-15 20:35:00,34.2,22.2,29.87,SSW,202,3.2,-999.0,61,-99.99,,,0.05,Acu-Link.com,2013-02-16 01:35:00,
2013-02-15 20:50:00,33.8,22.2,29.87,South,180,2.2,-999.0,62,-99.99,,,0.05,Acu-Link.com,2013-02-16 01:50:00,
2013-02-15 21:05:00,33.3,21.3,29.87,West,270,1.7,-999.0,61,-99.99,,,0.05,Acu-Link.com,2013-02-16 02:05:00,
2013-02-15 21:21:00,31.8,22.1,29.87,ESE,112,1.7,-999.0,67,-99.99,,,0.05,Acu-Link.com,2013-02-16 02:21:00,
2013-02-15 21:36:00,30.4,21.5,29.88,West,270,0.0,-999.0,69,-99.99,,,0.05,Acu-Link.com,2013-02-16 02:36:00,
2013-02-15 21:51:00,29.5,21.6,29.86,SW,225,0.0,-999.0,72,-99.99,,,0.05,Acu-Link.com,2013-02-16 02:51:00,
2013-02-15 22:06:00,28.6,21.7,29.87,SW,225,1.1,-999.0,75,-99.99,,,0.05,Acu-Link.com,2013-02-16 03:06:00,
2013-02-15 22:22:00,27.7,20.8,29.87,South,180,1.7,-999.0,75,-99.99,,,0.05,Acu-Link.com,2013-02-16 03:22:00,
2013-02-15 22:37:00,27.3,20.4,29.87,WSW,247,0.0,-999.0,75,-99.99,,,0.05,Acu-Link.com,2013-02-16 03:37:00,
2013-02-15 22:52:00,27.0,20.2,29.88,NNE,22,0.0,-999.0,75,-99.99,,,0.05,Acu-Link.com,2013-02-16 03:52:00,
2013-02-15 23:08:00,26.6,20.1,29.88,NE,45,0.0,-999.0,76,-99.99,,,0.05,Acu-Link.com,2013-02-16 04:08:00,
2013-02-15 23:23:00,26.4,20.5,29.88,South,180,1.1,-999.0,78,-99.99,,,0.05,Acu-Link.com,2013-02-16 04:23:00,
2013-02-15 23:39:00,27.0,21.1,29.87,WNW,292,2.7,-999.0,78,-99.99,,,0.05,Acu-Link.com,2013-02-16 04:39:00,
2013-02-15 23:54:00,27.0,21.1,29.88,ENE,67,0.0,-999.0,78,-99.99,,,0.05,Acu-Link.com,2013-02-16 04:54:00,